REU273 FMEE-FMCZ
Flight info
| Callsign | REU273 |
|---|---|
| Flight time | 1h 53m |
| Altitude | 38000 |
| Route | DOBUT2J DOBUT UB790 SOAVI |
| Aircraft | B77W/H-SDE1E2E3FGHIJ2J3J4J5M1RWXY/LB1D1 |
Departure
| Time | 2026-04-29 12:47 |
|---|---|
| Airport | Roland Garros Airport (FMEE) |
Arrival
| Time | 2026-04-29 14:40 |
|---|---|
| Airport | Dzaoudzi Pamandzi International Airport (FMCZ) |
| Time | Latitude | Longitude | Altitude | Speed | Heading |
|---|---|---|---|---|---|
| 2026-04-29 12:29 | -20.88958 | 55.50984 | 40 ft | 0 kts | 205° |
| 2026-04-29 12:41 | -20.88945 | 55.50991 | 54 ft | 3 kts | 213° |
| 2026-04-29 12:41 | -20.88930 | 55.51003 | 56 ft | 3 kts | 226° |
| 2026-04-29 12:41 | -20.88918 | 55.51018 | 54 ft | 3 kts | 242° |
| 2026-04-29 12:41 | -20.88911 | 55.51037 | 54 ft | 3 kts | 258° |
| 2026-04-29 12:42 | -20.88908 | 55.51057 | 54 ft | 3 kts | 272° |
| 2026-04-29 12:42 | -20.88910 | 55.51078 | 54 ft | 3 kts | 282° |
| 2026-04-29 12:42 | -20.88915 | 55.51099 | 54 ft | 3 kts | 289° |
| 2026-04-29 12:42 | -20.88922 | 55.51119 | 54 ft | 3 kts | 294° |
| 2026-04-29 12:43 | -20.88931 | 55.51138 | 54 ft | 3 kts | 298° |
| 2026-04-29 12:43 | -20.88941 | 55.51157 | 54 ft | 3 kts | 301° |
| 2026-04-29 12:43 | -20.88952 | 55.51175 | 55 ft | 3 kts | 303° |
| 2026-04-29 12:43 | -20.88960 | 55.51190 | 55 ft | 0 kts | 304° |
| 2026-04-29 12:45 | -20.88960 | 55.51189 | 55 ft | 1 kts | 308° |
| 2026-04-29 12:45 | -20.88944 | 55.51185 | 54 ft | 7 kts | 348° |
| 2026-04-29 12:46 | -20.88875 | 55.51163 | 55 ft | 12 kts | 342° |
| 2026-04-29 12:46 | -20.88795 | 55.51140 | 56 ft | 12 kts | 345° |
| 2026-04-29 12:46 | -20.88749 | 55.51183 | 51 ft | 10 kts | 88° |
| 2026-04-29 12:46 | -20.88773 | 55.51305 | 51 ft | 35 kts | 104° |
| 2026-04-29 12:47 | -20.88902 | 55.51935 | 51 ft | 141 kts | 103° |
| 2026-04-29 12:47 | -20.89144 | 55.53213 | 472 ft | 188 kts | 91° |
| 2026-04-29 12:47 | -20.89191 | 55.54540 | 1838 ft | 170 kts | 68° |
| 2026-04-29 12:47 | -20.88545 | 55.55610 | 2507 ft | 185 kts | 26° |
| 2026-04-29 12:48 | -20.87274 | 55.55901 | 2784 ft | 197 kts | 357° |
| 2026-04-29 12:48 | -20.85818 | 55.55807 | 3065 ft | 222 kts | 346° |
| 2026-04-29 12:48 | -20.84219 | 55.55552 | 3414 ft | 240 kts | 353° |
| 2026-04-29 12:48 | -20.82474 | 55.55451 | 3873 ft | 258 kts | 347° |
| 2026-04-29 12:49 | -20.80690 | 55.55158 | 4438 ft | 268 kts | 345° |
| 2026-04-29 12:49 | -20.78896 | 55.54619 | 5223 ft | 269 kts | 332° |
| 2026-04-29 12:49 | -20.77123 | 55.53883 | 5873 ft | 276 kts | 335° |
| 2026-04-29 12:49 | -20.75297 | 55.53235 | 6635 ft | 277 kts | 336° |
| 2026-04-29 12:50 | -20.73447 | 55.52618 | 7357 ft | 279 kts | 337° |
| 2026-04-29 12:50 | -20.71577 | 55.52020 | 8025 ft | 283 kts | 338° |
| 2026-04-29 12:50 | -20.69669 | 55.51440 | 8723 ft | 285 kts | 339° |
| 2026-04-29 12:50 | -20.67750 | 55.50849 | 9408 ft | 288 kts | 339° |
| 2026-04-29 12:51 | -20.65817 | 55.50223 | 10068 ft | 291 kts | 338° |
| 2026-04-29 12:51 | -20.63849 | 55.49567 | 10481 ft | 305 kts | 338° |
| 2026-04-29 12:51 | -20.61734 | 55.48897 | 10665 ft | 329 kts | 339° |
| 2026-04-29 12:51 | -20.59521 | 55.47994 | 10904 ft | 353 kts | 329° |
| 2026-04-29 12:52 | -20.57505 | 55.46474 | 11345 ft | 361 kts | 313° |
| 2026-04-29 12:52 | -20.55821 | 55.44450 | 11830 ft | 368 kts | 303° |
| 2026-04-29 12:52 | -20.54352 | 55.42241 | 12391 ft | 371 kts | 302° |
| 2026-04-29 12:52 | -20.52860 | 55.39986 | 13061 ft | 373 kts | 302° |
| 2026-04-29 12:53 | -20.51340 | 55.37728 | 13697 ft | 376 kts | 303° |
| 2026-04-29 12:53 | -20.49799 | 55.35464 | 14293 ft | 379 kts | 303° |
| 2026-04-29 12:53 | -20.48235 | 55.33185 | 14836 ft | 383 kts | 303° |
| 2026-04-29 12:53 | -20.46652 | 55.30883 | 15379 ft | 386 kts | 303° |
| 2026-04-29 12:54 | -20.45050 | 55.28576 | 15897 ft | 389 kts | 303° |
| 2026-04-29 12:54 | -20.43422 | 55.26250 | 16427 ft | 392 kts | 303° |
| 2026-04-29 12:54 | -20.41788 | 55.23915 | 16921 ft | 395 kts | 303° |
| 2026-04-29 12:54 | -20.40141 | 55.21568 | 17399 ft | 398 kts | 303° |
| 2026-04-29 12:55 | -20.38474 | 55.19199 | 17860 ft | 400 kts | 303° |
| 2026-04-29 12:55 | -20.36793 | 55.16816 | 18312 ft | 403 kts | 303° |
| 2026-04-29 12:55 | -20.35100 | 55.14420 | 18750 ft | 406 kts | 303° |
| 2026-04-29 12:55 | -20.33396 | 55.12009 | 19174 ft | 408 kts | 303° |
| 2026-04-29 12:56 | -20.31704 | 55.09616 | 19575 ft | 411 kts | 303° |
| 2026-04-29 12:56 | -20.29972 | 55.07181 | 19944 ft | 414 kts | 306° |
| 2026-04-29 12:56 | -20.28174 | 55.04740 | 20362 ft | 421 kts | 309° |
| 2026-04-29 12:56 | -20.26274 | 55.02358 | 21326 ft | 422 kts | 304° |
| 2026-04-29 12:57 | -20.24653 | 54.99776 | 21945 ft | 421 kts | 300° |
| 2026-04-29 12:57 | -20.23129 | 54.97063 | 22477 ft | 431 kts | 298° |
| 2026-04-29 12:57 | -20.21601 | 54.94284 | 23224 ft | 436 kts | 298° |
| 2026-04-29 12:57 | -20.20085 | 54.91520 | 24020 ft | 438 kts | 298° |
| 2026-04-29 12:58 | -20.18530 | 54.88713 | 24729 ft | 443 kts | 299° |
| 2026-04-29 12:58 | -20.16936 | 54.85874 | 25346 ft | 449 kts | 299° |
| 2026-04-29 12:58 | -20.15329 | 54.83009 | 25989 ft | 453 kts | 299° |
| 2026-04-29 12:58 | -20.13694 | 54.80125 | 26635 ft | 457 kts | 300° |
| 2026-04-29 12:59 | -20.12034 | 54.77230 | 27255 ft | 460 kts | 300° |
| 2026-04-29 12:59 | -20.10355 | 54.74312 | 27826 ft | 464 kts | 300° |
| 2026-04-29 12:59 | -20.08664 | 54.71363 | 28365 ft | 469 kts | 300° |
| 2026-04-29 12:59 | -20.06959 | 54.68386 | 28885 ft | 473 kts | 300° |
| 2026-04-29 13:00 | -20.05237 | 54.65397 | 29392 ft | 476 kts | 300° |
| 2026-04-29 13:00 | -20.03497 | 54.62374 | 29872 ft | 480 kts | 300° |
| 2026-04-29 13:00 | -20.01768 | 54.59368 | 30326 ft | 483 kts | 300° |
| 2026-04-29 13:00 | -20.00010 | 54.56308 | 30754 ft | 486 kts | 300° |
| 2026-04-29 13:01 | -19.98239 | 54.53225 | 31145 ft | 489 kts | 300° |
| 2026-04-29 13:01 | -19.96469 | 54.50141 | 31628 ft | 489 kts | 300° |
| 2026-04-29 13:01 | -19.94686 | 54.47038 | 30707 ft | 495 kts | 297° |
| 2026-04-29 13:01 | -19.92877 | 54.43886 | 30906 ft | 502 kts | 297° |
| 2026-04-29 13:02 | -19.91050 | 54.40711 | 31242 ft | 504 kts | 297° |
| 2026-04-29 13:02 | -19.89222 | 54.37547 | 31804 ft | 500 kts | 297° |
| 2026-04-29 13:02 | -19.87406 | 54.34415 | 32457 ft | 495 kts | 297° |
| 2026-04-29 13:02 | -19.85610 | 54.31317 | 33136 ft | 489 kts | 297° |
| 2026-04-29 13:03 | -19.83857 | 54.28291 | 33807 ft | 484 kts | 297° |
| 2026-04-29 13:03 | -19.82104 | 54.25258 | 34367 ft | 480 kts | 297° |
| 2026-04-29 13:03 | -19.80363 | 54.22239 | 34768 ft | 479 kts | 297° |
| 2026-04-29 13:03 | -19.78621 | 54.19221 | 35133 ft | 479 kts | 297° |
| 2026-04-29 13:04 | -19.76882 | 54.16211 | 35501 ft | 478 kts | 297° |
| 2026-04-29 13:04 | -19.75144 | 54.13205 | 35898 ft | 477 kts | 297° |
| 2026-04-29 13:04 | -19.73406 | 54.10207 | 36301 ft | 475 kts | 297° |
| 2026-04-29 13:04 | -19.71676 | 54.07222 | 36685 ft | 474 kts | 297° |
| 2026-04-29 13:05 | -19.69951 | 54.04242 | 37063 ft | 473 kts | 297° |
| 2026-04-29 13:05 | -19.68232 | 54.01274 | 37430 ft | 472 kts | 297° |
| 2026-04-29 13:05 | -19.66516 | 53.98313 | 37768 ft | 471 kts | 297° |
| 2026-04-29 13:05 | -19.64799 | 53.95352 | 37935 ft | 474 kts | 297° |
| 2026-04-29 13:06 | -19.63064 | 53.92363 | 37983 ft | 477 kts | 297° |
| 2026-04-29 13:06 | -19.59585 | 53.86385 | 37976 ft | 473 kts | 298° |
| 2026-04-29 13:07 | -19.56172 | 53.80528 | 37980 ft | 469 kts | 297° |
| 2026-04-29 13:07 | -19.52743 | 53.74648 | 37983 ft | 468 kts | 298° |
| 2026-04-29 13:08 | -19.49316 | 53.68778 | 37980 ft | 468 kts | 298° |
| 2026-04-29 13:08 | -19.45885 | 53.62903 | 37986 ft | 469 kts | 298° |
| 2026-04-29 13:09 | -19.42438 | 53.57011 | 37982 ft | 471 kts | 298° |
| 2026-04-29 13:09 | -19.38995 | 53.51144 | 37986 ft | 472 kts | 298° |
| 2026-04-29 13:10 | -19.35518 | 53.45221 | 37977 ft | 473 kts | 298° |
| 2026-04-29 13:10 | -19.32495 | 53.40386 | 37967 ft | 473 kts | 304° |
| 2026-04-29 13:11 | -19.28407 | 53.34899 | 37986 ft | 475 kts | 305° |
| 2026-04-29 13:11 | -19.24255 | 53.29434 | 37985 ft | 476 kts | 305° |
| 2026-04-29 13:12 | -19.20097 | 53.23963 | 37980 ft | 477 kts | 305° |
| 2026-04-29 13:12 | -19.15264 | 53.17586 | 37982 ft | 478 kts | 305° |
| 2026-04-29 13:13 | -19.11812 | 53.13031 | 37979 ft | 478 kts | 305° |
| 2026-04-29 13:13 | -19.07652 | 53.07542 | 37979 ft | 478 kts | 305° |
| 2026-04-29 13:14 | -19.03496 | 53.02064 | 37979 ft | 478 kts | 305° |
| 2026-04-29 13:14 | -18.99338 | 52.96588 | 37981 ft | 477 kts | 305° |
| 2026-04-29 13:15 | -18.95181 | 52.91121 | 37976 ft | 477 kts | 305° |
| 2026-04-29 13:15 | -18.91019 | 52.85660 | 37981 ft | 477 kts | 305° |
| 2026-04-29 13:16 | -18.86880 | 52.80229 | 37979 ft | 477 kts | 305° |
| 2026-04-29 13:16 | -18.82718 | 52.74766 | 37980 ft | 477 kts | 306° |
| 2026-04-29 13:17 | -18.78558 | 52.69310 | 37977 ft | 477 kts | 306° |
| 2026-04-29 13:17 | -18.74395 | 52.63857 | 37983 ft | 477 kts | 306° |
| 2026-04-29 13:18 | -18.70226 | 52.58401 | 37976 ft | 477 kts | 306° |
| 2026-04-29 13:18 | -18.66079 | 52.52978 | 37980 ft | 478 kts | 306° |
| 2026-04-29 13:19 | -18.61894 | 52.47511 | 37983 ft | 478 kts | 306° |
| 2026-04-29 13:19 | -18.57709 | 52.42048 | 37982 ft | 479 kts | 306° |
| 2026-04-29 13:20 | -18.53525 | 52.36592 | 37979 ft | 479 kts | 306° |
| 2026-04-29 13:20 | -18.49362 | 52.31167 | 37982 ft | 479 kts | 306° |
| 2026-04-29 13:21 | -18.45159 | 52.25696 | 37980 ft | 479 kts | 306° |
| 2026-04-29 13:21 | -18.40965 | 52.20241 | 37982 ft | 479 kts | 306° |
| 2026-04-29 13:22 | -18.36765 | 52.14782 | 37978 ft | 479 kts | 306° |
| 2026-04-29 13:22 | -18.32564 | 52.09332 | 37980 ft | 479 kts | 306° |
| 2026-04-29 13:23 | -18.28391 | 52.03921 | 37980 ft | 479 kts | 306° |
| 2026-04-29 13:23 | -18.24191 | 51.98476 | 37979 ft | 479 kts | 306° |
| 2026-04-29 13:24 | -18.19991 | 51.93035 | 37979 ft | 479 kts | 306° |
| 2026-04-29 13:24 | -18.15777 | 51.87584 | 37981 ft | 479 kts | 306° |
| 2026-04-29 13:25 | -18.11574 | 51.82154 | 37980 ft | 479 kts | 306° |
| 2026-04-29 13:25 | -18.05287 | 51.74033 | 37978 ft | 479 kts | 307° |
| 2026-04-29 13:26 | -18.01073 | 51.68597 | 37977 ft | 479 kts | 307° |
| 2026-04-29 13:26 | -17.96855 | 51.63158 | 37975 ft | 479 kts | 307° |
| 2026-04-29 13:27 | -17.92639 | 51.57728 | 37979 ft | 480 kts | 307° |
| 2026-04-29 13:27 | -17.88418 | 51.52297 | 37976 ft | 480 kts | 307° |
| 2026-04-29 13:28 | -17.84195 | 51.46867 | 37974 ft | 480 kts | 307° |
| 2026-04-29 13:28 | -17.79999 | 51.41477 | 37980 ft | 480 kts | 307° |
| 2026-04-29 13:29 | -17.75762 | 51.36039 | 37977 ft | 480 kts | 307° |
| 2026-04-29 13:29 | -17.71533 | 51.30617 | 37980 ft | 480 kts | 307° |
| 2026-04-29 13:30 | -17.67301 | 51.25195 | 37978 ft | 480 kts | 307° |
| 2026-04-29 13:30 | -17.63096 | 51.19814 | 37978 ft | 480 kts | 307° |
| 2026-04-29 13:31 | -17.58832 | 51.14365 | 37983 ft | 480 kts | 307° |
| 2026-04-29 13:31 | -17.54622 | 51.08992 | 37978 ft | 480 kts | 307° |
| 2026-04-29 13:32 | -17.50382 | 51.03593 | 37982 ft | 480 kts | 307° |
| 2026-04-29 13:32 | -17.46136 | 50.98188 | 37984 ft | 480 kts | 307° |
| 2026-04-29 13:33 | -17.41906 | 50.92770 | 37981 ft | 480 kts | 307° |
| 2026-04-29 13:33 | -17.37707 | 50.87388 | 37983 ft | 480 kts | 307° |
| 2026-04-29 13:34 | -17.33465 | 50.81981 | 37979 ft | 480 kts | 307° |
| 2026-04-29 13:34 | -17.29372 | 50.76779 | 37977 ft | 480 kts | 307° |
| 2026-04-29 13:35 | -17.25122 | 50.71385 | 37980 ft | 480 kts | 307° |
| 2026-04-29 13:35 | -17.20876 | 50.66000 | 37983 ft | 480 kts | 307° |
| 2026-04-29 13:36 | -17.16653 | 50.60648 | 37976 ft | 480 kts | 307° |
| 2026-04-29 13:36 | -17.12403 | 50.55267 | 37982 ft | 480 kts | 307° |
| 2026-04-29 13:37 | -17.08149 | 50.49883 | 37980 ft | 480 kts | 307° |
| 2026-04-29 13:37 | -17.03891 | 50.44500 | 37984 ft | 480 kts | 307° |
| 2026-04-29 13:38 | -16.99658 | 50.39154 | 37984 ft | 480 kts | 307° |
| 2026-04-29 13:38 | -16.95402 | 50.33784 | 37982 ft | 480 kts | 308° |
| 2026-04-29 13:39 | -16.91137 | 50.28408 | 37984 ft | 480 kts | 308° |
| 2026-04-29 13:39 | -16.86876 | 50.23040 | 37984 ft | 480 kts | 308° |
| 2026-04-29 13:40 | -16.82607 | 50.17669 | 37986 ft | 480 kts | 308° |
| 2026-04-29 13:40 | -16.78367 | 50.12341 | 37984 ft | 480 kts | 308° |
| 2026-04-29 13:41 | -16.74090 | 50.06978 | 37982 ft | 480 kts | 308° |
| 2026-04-29 13:41 | -16.69812 | 50.01616 | 37982 ft | 480 kts | 308° |
| 2026-04-29 13:42 | -16.65560 | 49.96253 | 37988 ft | 480 kts | 308° |
| 2026-04-29 13:42 | -16.61336 | 49.90910 | 37989 ft | 480 kts | 308° |
| 2026-04-29 13:43 | -16.57075 | 49.85548 | 37989 ft | 480 kts | 308° |
| 2026-04-29 13:43 | -16.52798 | 49.80182 | 37991 ft | 480 kts | 308° |
| 2026-04-29 13:44 | -16.48521 | 49.74827 | 37995 ft | 481 kts | 308° |
| 2026-04-29 13:44 | -16.44238 | 49.69467 | 37994 ft | 481 kts | 308° |
| 2026-04-29 13:45 | -16.39975 | 49.64134 | 38001 ft | 482 kts | 308° |
| 2026-04-29 13:45 | -16.35677 | 49.58763 | 38003 ft | 482 kts | 308° |
| 2026-04-29 13:46 | -16.31376 | 49.53391 | 38006 ft | 483 kts | 308° |
| 2026-04-29 13:46 | -16.27060 | 49.48006 | 38004 ft | 483 kts | 308° |
| 2026-04-29 13:47 | -16.22759 | 49.42643 | 38009 ft | 483 kts | 308° |
| 2026-04-29 13:47 | -16.18485 | 49.37300 | 38015 ft | 483 kts | 308° |
| 2026-04-29 13:48 | -16.14202 | 49.31909 | 38012 ft | 483 kts | 308° |
| 2026-04-29 13:48 | -16.09900 | 49.26526 | 38011 ft | 483 kts | 308° |
| 2026-04-29 13:49 | -16.05594 | 49.21168 | 38011 ft | 483 kts | 308° |
| 2026-04-29 13:49 | -16.01280 | 49.15812 | 38004 ft | 483 kts | 309° |
| 2026-04-29 13:50 | -15.96967 | 49.10458 | 37996 ft | 483 kts | 309° |
| 2026-04-29 13:50 | -15.92654 | 49.05109 | 37993 ft | 483 kts | 309° |
| 2026-04-29 13:51 | -15.88367 | 48.99795 | 37994 ft | 483 kts | 309° |
| 2026-04-29 13:51 | -15.84040 | 48.94436 | 37980 ft | 483 kts | 309° |
| 2026-04-29 13:52 | -15.79724 | 48.89096 | 37974 ft | 483 kts | 309° |
| 2026-04-29 13:52 | -15.75401 | 48.83749 | 37959 ft | 483 kts | 309° |
| 2026-04-29 13:53 | -15.71072 | 48.78398 | 37955 ft | 483 kts | 309° |
| 2026-04-29 13:53 | -15.66747 | 48.73056 | 37945 ft | 484 kts | 309° |
| 2026-04-29 13:54 | -15.62411 | 48.67705 | 37940 ft | 484 kts | 309° |
| 2026-04-29 13:54 | -15.58107 | 48.62397 | 37934 ft | 484 kts | 309° |
| 2026-04-29 13:55 | -15.53762 | 48.57042 | 37933 ft | 485 kts | 309° |
| 2026-04-29 13:55 | -15.49409 | 48.51682 | 37927 ft | 486 kts | 309° |
| 2026-04-29 13:56 | -15.45051 | 48.46319 | 37918 ft | 486 kts | 309° |
| 2026-04-29 13:56 | -15.40688 | 48.40954 | 37912 ft | 487 kts | 309° |
| 2026-04-29 13:57 | -15.37052 | 48.36486 | 37898 ft | 487 kts | 309° |
| 2026-04-29 13:57 | -15.32677 | 48.31113 | 37902 ft | 487 kts | 309° |
| 2026-04-29 13:58 | -15.27596 | 48.24876 | 37892 ft | 487 kts | 309° |
| 2026-04-29 13:58 | -15.23931 | 48.20380 | 37888 ft | 487 kts | 309° |
| 2026-04-29 13:59 | -15.18850 | 48.14153 | 37886 ft | 487 kts | 309° |
| 2026-04-29 13:59 | -15.14476 | 48.08797 | 37978 ft | 487 kts | 309° |
| 2026-04-29 14:00 | -15.13027 | 48.07024 | 38159 ft | 488 kts | 309° |
| 2026-04-29 14:00 | -15.10837 | 48.04345 | 38479 ft | 488 kts | 309° |
| 2026-04-29 14:00 | -15.08647 | 48.01666 | 38815 ft | 485 kts | 309° |
| 2026-04-29 14:00 | -15.06464 | 47.98995 | 38888 ft | 487 kts | 309° |
| 2026-04-29 14:01 | -15.02092 | 47.93648 | 38889 ft | 486 kts | 309° |
| 2026-04-29 14:01 | -14.97725 | 47.88314 | 38885 ft | 485 kts | 309° |
| 2026-04-29 14:02 | -14.93398 | 47.83035 | 38897 ft | 484 kts | 309° |
| 2026-04-29 14:02 | -14.89047 | 47.77729 | 38900 ft | 484 kts | 309° |
| 2026-04-29 14:03 | -14.84682 | 47.72410 | 38904 ft | 485 kts | 309° |
| 2026-04-29 14:03 | -14.80311 | 47.67086 | 38901 ft | 486 kts | 309° |
| 2026-04-29 14:04 | -14.75925 | 47.61749 | 38894 ft | 486 kts | 309° |
| 2026-04-29 14:04 | -14.71570 | 47.56453 | 38903 ft | 487 kts | 309° |
| 2026-04-29 14:05 | -14.67190 | 47.51129 | 38908 ft | 486 kts | 309° |
| 2026-04-29 14:05 | -14.62799 | 47.45795 | 38906 ft | 486 kts | 309° |
| 2026-04-29 14:06 | -14.58423 | 47.40484 | 38908 ft | 485 kts | 309° |
| 2026-04-29 14:06 | -14.54048 | 47.35175 | 38915 ft | 485 kts | 309° |
| 2026-04-29 14:07 | -14.49667 | 47.29865 | 38919 ft | 486 kts | 309° |
| 2026-04-29 14:07 | -14.45277 | 47.24548 | 38913 ft | 487 kts | 309° |
| 2026-04-29 14:08 | -14.40911 | 47.19267 | 38912 ft | 487 kts | 309° |
| 2026-04-29 14:08 | -14.36498 | 47.13937 | 38915 ft | 488 kts | 309° |
| 2026-04-29 14:09 | -14.32091 | 47.08613 | 38912 ft | 488 kts | 309° |
| 2026-04-29 14:09 | -14.27675 | 47.03281 | 38920 ft | 488 kts | 309° |
| 2026-04-29 14:10 | -14.23264 | 46.97954 | 38917 ft | 488 kts | 309° |
| 2026-04-29 14:10 | -14.18847 | 46.92619 | 38925 ft | 488 kts | 309° |
| 2026-04-29 14:11 | -14.14465 | 46.87332 | 38919 ft | 488 kts | 309° |
| 2026-04-29 14:11 | -14.10051 | 46.82014 | 38926 ft | 488 kts | 309° |
| 2026-04-29 14:12 | -14.05644 | 46.76710 | 38736 ft | 484 kts | 309° |
| 2026-04-29 14:12 | -14.03455 | 46.74077 | 38333 ft | 484 kts | 308° |
| 2026-04-29 14:12 | -14.01268 | 46.71447 | 37742 ft | 483 kts | 308° |
| 2026-04-29 14:13 | -13.99087 | 46.68825 | 37095 ft | 482 kts | 308° |
| 2026-04-29 14:13 | -13.96910 | 46.66210 | 36529 ft | 480 kts | 308° |
| 2026-04-29 14:13 | -13.94742 | 46.63607 | 36028 ft | 477 kts | 308° |
| 2026-04-29 14:13 | -13.92590 | 46.61024 | 35570 ft | 473 kts | 308° |
| 2026-04-29 14:14 | -13.90454 | 46.58461 | 35102 ft | 470 kts | 308° |
| 2026-04-29 14:14 | -13.88351 | 46.55936 | 34634 ft | 468 kts | 308° |
| 2026-04-29 14:14 | -13.86248 | 46.53414 | 34088 ft | 460 kts | 308° |
| 2026-04-29 14:14 | -13.84160 | 46.50911 | 33467 ft | 464 kts | 308° |
| 2026-04-29 14:15 | -13.82052 | 46.48380 | 32963 ft | 464 kts | 309° |
| 2026-04-29 14:15 | -13.79961 | 46.45874 | 32474 ft | 461 kts | 309° |
| 2026-04-29 14:15 | -13.77863 | 46.43359 | 32013 ft | 466 kts | 309° |
| 2026-04-29 14:15 | -13.75723 | 46.40799 | 31538 ft | 472 kts | 309° |
| 2026-04-29 14:16 | -13.73569 | 46.38223 | 31042 ft | 478 kts | 309° |
| 2026-04-29 14:16 | -13.71384 | 46.35612 | 30546 ft | 484 kts | 309° |
| 2026-04-29 14:16 | -13.69219 | 46.33023 | 29985 ft | 475 kts | 310° |
| 2026-04-29 14:16 | -13.67082 | 46.30463 | 29126 ft | 479 kts | 310° |
| 2026-04-29 14:17 | -13.64913 | 46.27850 | 28394 ft | 479 kts | 310° |
| 2026-04-29 14:17 | -13.62751 | 46.25249 | 28054 ft | 478 kts | 310° |
| 2026-04-29 14:17 | -13.60629 | 46.22704 | 27841 ft | 457 kts | 310° |
| 2026-04-29 14:17 | -13.58576 | 46.20243 | 27548 ft | 453 kts | 310° |
| 2026-04-29 14:18 | -13.56532 | 46.17801 | 27326 ft | 443 kts | 310° |
| 2026-04-29 14:18 | -13.54516 | 46.15392 | 26822 ft | 442 kts | 311° |
| 2026-04-29 14:18 | -13.52514 | 46.13006 | 26144 ft | 441 kts | 311° |
| 2026-04-29 14:18 | -13.50507 | 46.10617 | 25412 ft | 441 kts | 311° |
| 2026-04-29 14:19 | -13.48493 | 46.08225 | 24729 ft | 447 kts | 312° |
| 2026-04-29 14:19 | -13.46448 | 46.05797 | 24428 ft | 448 kts | 312° |
| 2026-04-29 14:19 | -13.44421 | 46.03387 | 24020 ft | 446 kts | 312° |
| 2026-04-29 14:19 | -13.42399 | 46.00979 | 23521 ft | 439 kts | 312° |
| 2026-04-29 14:20 | -13.34975 | 45.92136 | 21511 ft | 431 kts | 312° |
| 2026-04-29 14:20 | -13.20131 | 45.74538 | 17461 ft | 378 kts | 311° |
| 2026-04-29 14:20 | -13.07102 | 45.59090 | 13252 ft | 337 kts | 310° |
| 2026-04-29 14:20 | -12.95531 | 45.45399 | 9108 ft | 309 kts | 310° |
| 2026-04-29 14:21 | -12.93152 | 45.42588 | 8182 ft | 303 kts | 310° |
| 2026-04-29 14:21 | -12.91778 | 45.40967 | 7657 ft | 299 kts | 310° |
| 2026-04-29 14:21 | -12.90419 | 45.39364 | 7133 ft | 296 kts | 310° |
| 2026-04-29 14:21 | -12.89082 | 45.37786 | 6613 ft | 290 kts | 310° |
| 2026-04-29 14:22 | -12.87768 | 45.36234 | 6091 ft | 286 kts | 310° |
| 2026-04-29 14:22 | -12.86471 | 45.34704 | 5550 ft | 282 kts | 310° |
| 2026-04-29 14:22 | -12.85190 | 45.33196 | 5021 ft | 279 kts | 309° |
| 2026-04-29 14:22 | -12.83909 | 45.31724 | 4483 ft | 276 kts | 314° |
| 2026-04-29 14:23 | -12.82608 | 45.30331 | 3980 ft | 271 kts | 306° |
| 2026-04-29 14:23 | -12.81518 | 45.28775 | 3431 ft | 267 kts | 301° |
| 2026-04-29 14:23 | -12.80493 | 45.27245 | 3132 ft | 251 kts | 302° |
| 2026-04-29 14:23 | -12.79466 | 45.25827 | 3017 ft | 242 kts | 303° |
| 2026-04-29 14:24 | -12.78451 | 45.24522 | 3034 ft | 230 kts | 305° |
| 2026-04-29 14:24 | -12.77465 | 45.23263 | 2990 ft | 222 kts | 304° |
| 2026-04-29 14:24 | -12.76500 | 45.22097 | 2972 ft | 206 kts | 310° |
| 2026-04-29 14:24 | -12.75472 | 45.21093 | 2985 ft | 206 kts | 314° |
| 2026-04-29 14:25 | -12.74373 | 45.20150 | 2934 ft | 207 kts | 320° |
| 2026-04-29 14:25 | -12.73203 | 45.19248 | 3015 ft | 212 kts | 320° |
| 2026-04-29 14:25 | -12.72035 | 45.18374 | 2986 ft | 204 kts | 322° |
| 2026-04-29 14:25 | -12.70827 | 45.17584 | 3017 ft | 213 kts | 326° |
| 2026-04-29 14:26 | -12.69573 | 45.16811 | 3066 ft | 210 kts | 326° |
| 2026-04-29 14:26 | -12.68305 | 45.16072 | 3021 ft | 210 kts | 338° |
| 2026-04-29 14:26 | -12.66919 | 45.16062 | 3019 ft | 197 kts | 19° |
| 2026-04-29 14:26 | -12.65854 | 45.16823 | 2986 ft | 181 kts | 54° |
| 2026-04-29 14:27 | -12.65435 | 45.17945 | 2987 ft | 163 kts | 87° |
| 2026-04-29 14:27 | -12.65544 | 45.19079 | 3016 ft | 160 kts | 107° |
| 2026-04-29 14:27 | -12.66233 | 45.19885 | 3017 ft | 155 kts | 153° |
| 2026-04-29 14:28 | -12.68215 | 45.20874 | 2763 ft | 161 kts | 151° |
| 2026-04-29 14:28 | -12.69174 | 45.21397 | 2541 ft | 153 kts | 151° |
| 2026-04-29 14:28 | -12.70083 | 45.21905 | 2314 ft | 145 kts | 150° |
| 2026-04-29 14:28 | -12.70944 | 45.22393 | 2134 ft | 147 kts | 150° |
| 2026-04-29 14:29 | -12.71856 | 45.22909 | 1948 ft | 151 kts | 150° |
| 2026-04-29 14:29 | -12.72762 | 45.23427 | 1737 ft | 148 kts | 150° |
| 2026-04-29 14:29 | -12.73650 | 45.23941 | 1548 ft | 146 kts | 150° |
| 2026-04-29 14:29 | -12.74532 | 45.24456 | 1341 ft | 146 kts | 149° |
| 2026-04-29 14:30 | -12.75410 | 45.24973 | 1156 ft | 146 kts | 149° |
| 2026-04-29 14:30 | -12.76289 | 45.25492 | 970 ft | 146 kts | 150° |
| 2026-04-29 14:30 | -12.77184 | 45.25990 | 664 ft | 146 kts | 145° |
| 2026-04-29 14:30 | -12.78049 | 45.26502 | 605 ft | 146 kts | 147° |
| 2026-04-29 14:31 | -12.78932 | 45.27010 | 377 ft | 145 kts | 142° |
| 2026-04-29 14:31 | -12.79794 | 45.27550 | 224 ft | 147 kts | 151° |
| 2026-04-29 14:31 | -12.80667 | 45.28053 | 42 ft | 132 kts | 150° |
| 2026-04-29 14:31 | -12.81415 | 45.28476 | 163 ft | 134 kts | 156° |
| 2026-04-29 14:32 | -12.82126 | 45.29136 | 938 ft | 141 kts | 118° |
| 2026-04-29 14:32 | -12.82584 | 45.30065 | 1250 ft | 148 kts | 112° |
| 2026-04-29 14:32 | -12.83127 | 45.30987 | 1453 ft | 156 kts | 105° |
| 2026-04-29 14:32 | -12.83121 | 45.32185 | 2395 ft | 194 kts | 78° |
| 2026-04-29 14:33 | -12.82347 | 45.33530 | 2628 ft | 248 kts | 31° |
| 2026-04-29 14:33 | -12.80690 | 45.34013 | 2774 ft | 248 kts | 346° |
| 2026-04-29 14:33 | -12.79261 | 45.33251 | 2887 ft | 228 kts | 302° |
| 2026-04-29 14:33 | -12.78206 | 45.32064 | 2814 ft | 230 kts | 320° |
| 2026-04-29 14:34 | -12.76760 | 45.31474 | 3001 ft | 222 kts | 339° |
| 2026-04-29 14:34 | -12.75228 | 45.31093 | 3111 ft | 226 kts | 338° |
| 2026-04-29 14:34 | -12.73705 | 45.30655 | 3108 ft | 226 kts | 336° |
| 2026-04-29 14:34 | -12.72275 | 45.30138 | 3088 ft | 214 kts | 334° |
| 2026-04-29 14:35 | -12.70893 | 45.29627 | 3109 ft | 211 kts | 338° |
| 2026-04-29 14:35 | -12.69536 | 45.29097 | 3108 ft | 206 kts | 326° |
| 2026-04-29 14:35 | -12.68667 | 45.28033 | 3086 ft | 190 kts | 279° |
| 2026-04-29 14:35 | -12.68526 | 45.26754 | 3082 ft | 176 kts | 266° |
| 2026-04-29 14:36 | -12.68400 | 45.25530 | 3151 ft | 181 kts | 270° |
| 2026-04-29 14:36 | -12.68055 | 45.24310 | 3133 ft | 177 kts | 292° |
| 2026-04-29 14:36 | -12.67570 | 45.23190 | 3115 ft | 166 kts | 281° |
| 2026-04-29 14:36 | -12.67706 | 45.22114 | 3130 ft | 148 kts | 226° |
| 2026-04-29 14:37 | -12.68624 | 45.21727 | 3081 ft | 151 kts | 170° |
| 2026-04-29 14:37 | -12.69669 | 45.21897 | 3002 ft | 149 kts | 178° |
| 2026-04-29 14:37 | -12.70698 | 45.22006 | 2995 ft | 153 kts | 142° |
| 2026-04-29 14:37 | -12.71626 | 45.22610 | 2583 ft | 163 kts | 150° |
| 2026-04-29 14:38 | -12.72558 | 45.23152 | 2070 ft | 148 kts | 140° |
| 2026-04-29 14:38 | -12.73413 | 45.23662 | 1573 ft | 134 kts | 138° |
| 2026-04-29 14:38 | -12.74228 | 45.24209 | 1368 ft | 144 kts | 145° |
| 2026-04-29 14:38 | -12.75125 | 45.24710 | 1277 ft | 148 kts | 144° |
| 2026-04-29 14:39 | -12.76014 | 45.25280 | 1221 ft | 151 kts | 141° |
| 2026-04-29 14:39 | -12.76927 | 45.25812 | 1018 ft | 151 kts | 139° |
| 2026-04-29 14:39 | -12.77849 | 45.26362 | 737 ft | 153 kts | 141° |
| 2026-04-29 14:39 | -12.78760 | 45.26930 | 455 ft | 152 kts | 142° |
| 2026-04-29 14:40 | -12.79660 | 45.27459 | 223 ft | 149 kts | 142° |
| 2026-04-29 14:40 | -12.80556 | 45.27992 | 43 ft | 145 kts | 144° |
| 2026-04-29 14:40 | -12.81306 | 45.28449 | 37 ft | 81 kts | 152° |
| 2026-04-29 14:40 | -12.81577 | 45.28598 | 37 ft | 34 kts | 149° |
| 2026-04-29 14:41 | -12.81648 | 45.28625 | 38 ft | 2 kts | 124° |
| 2026-04-29 14:41 | -12.81636 | 45.28642 | 38 ft | 5 kts | 19° |
| 2026-04-29 14:41 | -12.81561 | 45.28593 | 37 ft | 27 kts | 327° |
| 2026-04-29 14:41 | -12.81335 | 45.28457 | 38 ft | 44 kts | 330° |
| 2026-04-29 14:42 | -12.81083 | 45.28300 | 35 ft | 41 kts | 329° |
| 2026-04-29 14:42 | -12.80768 | 45.28122 | 35 ft | 48 kts | 328° |
| 2026-04-29 14:42 | -12.80543 | 45.27990 | 36 ft | 29 kts | 327° |
| 2026-04-29 14:42 | -12.80443 | 45.27995 | 37 ft | 13 kts | 59° |
| 2026-04-29 14:43 | -12.80395 | 45.28076 | 37 ft | 13 kts | 57° |
| 2026-04-29 14:43 | -12.80384 | 45.28092 | 37 ft | 1 kts | 54° |
| 2026-04-29 14:43 | -12.80379 | 45.28100 | 37 ft | 0 kts | 56° |
| 2026-04-29 14:44 | -12.80372 | 45.28113 | 37 ft | 6 kts | 64° |
| 2026-04-29 14:44 | -12.80361 | 45.28166 | 37 ft | 0 kts | 83° |
| 2026-04-29 14:44 | -12.80359 | 45.28180 | 37 ft | 3 kts | 82° |
| 2026-04-29 14:44 | -12.80357 | 45.28193 | 37 ft | 0 kts | 80° |
| 2026-04-29 14:45 | -12.80357 | 45.28194 | 37 ft | 0 kts | 81° |
| 2026-04-29 14:45 | -12.80354 | 45.28210 | 37 ft | 0 kts | 84° |